Time;durP1;ratioP1;P1;durP2;ratioP2;P2;SDS_P1;SDS_P2;PMS_P1;PMS_P2;Temp;Humidity;BMP_temperature;BMP_pressure;BME280_temperature;BME280_humidity;BME280_pressure;Samples;Min_cycle;Max_cycle;Signal;HPM_P1;HPM_P2
2022/03/11 00:00:45;;;;;;;;;;;;;;;-0.55;63.22;100798.19;5029265;28;19929;-85
2022/03/11 00:03:10;;;;;;;;;;;;;;;-0.56;63.35;100798.13;5027082;28;19912;-84
2022/03/11 00:05:36;;;;;;;;;;;;;;;-0.58;64.26;100792.88;5027300;28;20315;-84
2022/03/11 00:08:01;;;;;;;;;;;;;;;-0.55;64.33;100799.91;5028063;28;19928;-84
2022/03/11 00:10:27;;;;;;;;;;;;;;;-0.62;64.69;100792.66;5027054;28;20434;-84
2022/03/11 00:12:52;;;;;;;;;;;;;;;-0.60;64.88;100794.50;5027355;28;20413;-84
2022/03/11 00:15:17;;;;;;;;;;;;;;;-0.57;65.15;100799.84;5028075;28;19920;-84
2022/03/11 00:17:43;;;;;;;;;;;;;;;-0.56;64.45;100800.72;5006717;28;19922;-84
2022/03/11 00:20:08;;;;;;;;;;;;;;;-0.55;64.36;100805.09;5013969;28;19921;-84
2022/03/11 00:22:34;;;;;;;;;;;;;;;-0.59;64.50;100801.47;5027489;28;19917;-84
2022/03/11 00:24:59;;;;;;;;;;;;;;;-0.54;64.11;100801.69;5026430;28;19963;-83
2022/03/11 00:27:25;;;;;;;;;;;;;;;-0.71;64.16;100782.75;5027183;28;20034;-84
2022/03/11 00:29:50;;;;;;;;;;;;;;;-0.48;63.55;100802.00;5026572;28;19921;-84
2022/03/11 00:32:15;;;;;;;;;;;;;;;-0.40;62.75;100797.16;5026849;28;19917;-84
2022/03/11 00:34:41;;;;;;;;;;;;;;;-0.35;62.75;100795.66;5026352;28;19917;-83
2022/03/11 00:37:06;;;;;;;;;;;;;;;-0.51;62.74;100795.75;5026355;28;19963;-83
2022/03/11 00:39:32;;;;;;;;;;;;;;;-0.48;61.92;100791.63;5027270;28;19979;-83
2022/03/11 00:41:57;;;;;;;;;;;;;;;-0.41;62.80;100792.78;5026468;28;19913;-84
2022/03/11 00:44:22;;;;;;;;;;;;;;;-0.91;62.55;100794.75;5026963;28;19925;-84
2022/03/11 00:46:48;;;;;;;;;;;;;;;-1.00;64.85;100797.75;5027222;28;19960;-84
2022/03/11 00:49:13;;;;;;;;;;;;;;;-1.23;63.68;100798.34;5008928;28;19921;-84
2022/03/11 00:51:38;;;;;;;;;;;;;;;-0.94;62.99;100790.28;5027789;28;20000;-84
2022/03/11 00:54:04;;;;;;;;;;;;;;;-0.79;62.75;100794.44;5026245;28;19913;-84
2022/03/11 00:56:30;;;;;;;;;;;;;;;-0.67;62.08;100797.63;5026960;28;20433;-84
2022/03/11 00:58:56;;;;;;;;;;;;;;;-0.48;60.95;100795.91;5026808;28;19956;-84
2022/03/11 01:01:22;;;;;;;;;;;;;;;-0.61;60.51;100795.31;5027003;28;19956;-84
2022/03/11 01:03:48;;;;;;;;;;;;;;;-0.45;60.45;100796.94;5027109;28;19917;-84
2022/03/11 01:06:13;;;;;;;;;;;;;;;-0.29;60.33;100797.66;5025605;28;19924;-84
2022/03/11 01:08:38;;;;;;;;;;;;;;;-0.26;59.69;100801.28;5027041;28;20028;-84
2022/03/11 01:11:05;;;;;;;;;;;;;;;-0.45;59.82;100803.81;5026201;28;20418;-85
2022/03/11 01:13:30;;;;;;;;;;;;;;;-0.34;59.73;100806.91;5026963;28;19924;-85
2022/03/11 01:15:56;;;;;;;;;;;;;;;-0.23;59.30;100809.19;5026450;28;19921;-85
2022/03/11 01:18:21;;;;;;;;;;;;;;;-0.08;59.04;100803.84;5027174;28;19959;-85
2022/03/11 01:20:46;;;;;;;;;;;;;;;-0.17;58.97;100807.69;5008731;28;19957;-85
2022/03/11 01:23:12;;;;;;;;;;;;;;;-0.07;58.34;100802.13;5027717;28;19955;-86
2022/03/11 01:25:37;;;;;;;;;;;;;;;-0.21;58.67;100807.56;5031482;28;19916;-85
2022/03/11 01:28:02;;;;;;;;;;;;;;;-0.37;59.99;100802.50;5012054;28;19947;-84
2022/03/11 01:30:28;;;;;;;;;;;;;;;-0.21;59.44;100804.97;5013247;28;19921;-86
2022/03/11 01:32:53;;;;;;;;;;;;;;;-0.23;59.42;100806.59;5031247;28;19983;-85
2022/03/11 01:35:19;;;;;;;;;;;;;;;-0.26;59.73;100803.88;5012535;28;19921;-84
2022/03/11 01:37:44;;;;;;;;;;;;;;;-0.48;60.19;100806.25;5030142;28;19921;-84
2022/03/11 01:40:10;;;;;;;;;;;;;;;-0.64;61.49;100808.13;5030523;28;19917;-84
2022/03/11 01:42:36;;;;;;;;;;;;;;;-0.75;61.44;100809.31;5030398;28;19917;-84
2022/03/11 01:45:03;;;;;;;;;;;;;;;-0.73;60.55;100816.38;5030688;28;19995;-83
2022/03/11 01:47:29;;;;;;;;;;;;;;;-0.88;61.50;100817.31;5030601;28;19917;-84
2022/03/11 01:49:54;;;;;;;;;;;;;;;-1.00;62.34;100815.91;5029970;28;19917;-84
2022/03/11 01:52:19;;;;;;;;;;;;;;;-0.92;62.71;100816.28;5030407;28;19913;-84
2022/03/11 01:54:45;;;;;;;;;;;;;;;-1.26;64.01;100807.69;5013292;28;19928;-85
2022/03/11 01:57:12;;;;;;;;;;;;;;;-1.12;64.21;100813.56;5030752;28;19924;-85
2022/03/11 01:59:37;;;;;;;;;;;;;;;-1.19;63.50;100815.78;5030877;28;19999;-84
2022/03/11 02:02:03;;;;;;;;;;;;;;;-1.39;64.16;100812.19;5030772;28;20016;-84
2022/03/11 02:04:28;;;;;;;;;;;;;;;-1.19;63.94;100815.78;5031082;28;19917;-85
2022/03/11 02:06:53;;;;;;;;;;;;;;;-1.17;63.57;100817.66;5031096;28;20365;-84
2022/03/11 02:09:19;;;;;;;;;;;;;;;-1.49;64.36;100813.41;5029795;28;19921;-84
2022/03/11 02:11:47;;;;;;;;;;;;;;;-1.17;64.55;100816.75;5030023;28;19971;-84
2022/03/11 02:14:13;;;;;;;;;;;;;;;-0.93;64.08;100823.16;5011172;28;20763;-86
2022/03/11 02:16:40;;;;;;;;;;;;;;;-0.82;63.23;100818.50;5028792;28;19970;-85
2022/03/11 02:19:05;;;;;;;;;;;;;;;-1.00;63.29;100813.31;5029374;28;19917;-85
2022/03/11 02:21:34;;;;;;;;;;;;;;;-0.82;63.40;100818.50;5030010;28;19921;-83
2022/03/11 02:24:00;;;;;;;;;;;;;;;-0.81;62.86;100822.84;5029523;28;19913;-84
2022/03/11 02:26:27;;;;;;;;;;;;;;;-0.62;62.13;100824.66;5030532;28;20284;-84
2022/03/11 02:28:53;;;;;;;;;;;;;;;-0.51;62.18;100822.59;5013048;28;19928;-86
2022/03/11 02:31:19;;;;;;;;;;;;;;;-0.69;62.87;100819.09;5014968;28;19924;-85
2022/03/11 02:33:45;;;;;;;;;;;;;;;-0.45;62.85;100824.56;5029913;28;19921;-85
2022/03/11 02:36:10;;;;;;;;;;;;;;;-0.39;62.29;100827.44;5029454;28;19928;-85
2022/03/11 02:38:36;;;;;;;;;;;;;;;-0.31;61.25;100828.72;5030561;28;19974;-85
2022/03/11 02:41:01;;;;;;;;;;;;;;;-0.17;60.55;100826.75;5028815;28;19944;-84
2022/03/11 02:43:27;;;;;;;;;;;;;;;-0.39;59.82;100835.22;5029339;28;19917;-85
2022/03/11 02:45:52;;;;;;;;;;;;;;;-0.55;60.41;100831.91;5011415;28;19920;-85
2022/03/11 02:48:18;;;;;;;;;;;;;;;-0.50;60.14;100839.91;5011118;28;19921;-86
2022/03/11 02:50:44;;;;;;;;;;;;;;;-0.38;60.09;100837.00;5012986;28;19921;-86
2022/03/11 02:53:09;;;;;;;;;;;;;;;-0.26;59.36;100835.00;5031193;28;20381;-86
2022/03/11 02:55:34;;;;;;;;;;;;;;;-0.24;58.20;100835.06;5012619;28;19921;-85
2022/03/11 02:58:00;;;;;;;;;;;;;;;-0.40;58.01;100841.25;5029213;28;19917;-85
2022/03/11 03:00:25;;;;;;;;;;;;;;;-0.30;57.71;100839.97;5029773;28;19952;-85
2022/03/11 03:02:51;;;;;;;;;;;;;;;-0.35;57.75;100839.75;5029891;28;20366;-85
2022/03/11 03:05:17;;;;;;;;;;;;;;;-0.13;57.27;100835.56;5029339;28;19921;-85
2022/03/11 03:07:42;;;;;;;;;;;;;;;0.01;56.77;100837.09;5029542;28;19963;-84
2022/03/11 03:10:08;;;;;;;;;;;;;;;-0.10;56.39;100835.72;5029445;28;19952;-85
2022/03/11 03:12:34;;;;;;;;;;;;;;;-0.15;55.92;100835.50;5030794;28;19921;-85
2022/03/11 03:14:59;;;;;;;;;;;;;;;-0.31;56.05;100836.50;5027967;28;19970;-85
2022/03/11 03:17:25;;;;;;;;;;;;;;;-0.41;55.67;100840.34;5032119;28;19917;-86
2022/03/11 03:19:50;;;;;;;;;;;;;;;-0.20;54.87;100837.88;5037466;28;19956;-84
2022/03/11 03:22:15;;;;;;;;;;;;;;;-0.62;52.84;100850.59;5035089;28;19927;-86
2022/03/11 03:24:42;;;;;;;;;;;;;;;-0.78;52.59;100855.81;5016112;28;19917;-84
2022/03/11 03:27:07;;;;;;;;;;;;;;;-0.65;51.66;100862.47;5033732;28;19974;-84
2022/03/11 03:29:33;;;;;;;;;;;;;;;-0.57;51.17;100854.28;5030028;28;19929;-85
2022/03/11 03:31:58;;;;;;;;;;;;;;;-0.66;50.93;100860.72;5031787;28;19944;-86
2022/03/11 03:34:28;;;;;;;;;;;;;;;-0.74;51.44;100858.63;5030126;28;19924;-86
2022/03/11 03:36:54;;;;;;;;;;;;;;;-0.55;51.29;100852.63;5028244;28;19925;-85
2022/03/11 03:39:19;;;;;;;;;;;;;;;-0.72;51.64;100837.97;5029282;28;20050;-85
2022/03/11 03:41:44;;;;;;;;;;;;;;;-0.75;53.14;100863.75;5010287;28;19917;-85
2022/03/11 03:44:10;;;;;;;;;;;;;;;-0.73;53.64;100868.19;5028721;28;19921;-87
2022/03/11 03:46:35;;;;;;;;;;;;;;;-0.78;53.50;100861.00;5024105;28;19928;-85
2022/03/11 03:49:01;;;;;;;;;;;;;;;-1.17;51.47;100858.19;5032843;28;19917;-86
2022/03/11 03:51:26;;;;;;;;;;;;;;;-1.40;51.72;100854.44;5043619;28;19975;-85
2022/03/11 03:53:51;;;;;;;;;;;;;;;-1.32;52.46;100851.41;5019911;28;19913;-85
2022/03/11 03:56:16;;;;;;;;;;;;;;;-1.33;52.06;100852.22;5037398;28;20028;-85
2022/03/11 03:58:42;;;;;;;;;;;;;;;-1.22;51.96;100854.47;5042079;28;19928;-86
2022/03/11 04:01:07;;;;;;;;;;;;;;;-1.19;52.14;100860.72;5021590;28;20454;-86
2022/03/11 04:03:32;;;;;;;;;;;;;;;-1.12;51.00;100864.50;5010258;28;19924;-85
2022/03/11 04:05:58;;;;;;;;;;;;;;;-1.13;51.60;100868.78;5027876;28;20443;-83
2022/03/11 04:08:23;;;;;;;;;;;;;;;-1.00;51.31;100869.41;5027957;28;20553;-88
2022/03/11 04:10:49;;;;;;;;;;;;;;;-0.98;51.77;100866.06;5010451;28;20463;-86
2022/03/11 04:13:14;;;;;;;;;;;;;;;-0.92;51.60;100870.69;5027447;28;19964;-88
2022/03/11 04:15:40;;;;;;;;;;;;;;;-0.84;51.24;100868.47;5007167;28;19917;-88
2022/03/11 04:18:06;;;;;;;;;;;;;;;-0.57;50.41;100880.19;5022658;28;19947;-86
2022/03/11 04:20:31;;;;;;;;;;;;;;;-0.77;51.34;100879.22;5010060;28;20004;-84
2022/03/11 04:22:57;;;;;;;;;;;;;;;-0.84;50.84;100884.00;5027734;28;20529;-85
2022/03/11 04:25:23;;;;;;;;;;;;;;;-0.69;49.90;100884.78;5009393;28;19921;-84
2022/03/11 04:27:48;;;;;;;;;;;;;;;-0.75;50.83;100880.16;5027789;28;19920;-85
2022/03/11 04:30:13;;;;;;;;;;;;;;;-0.63;50.45;100884.19;5027916;28;19928;-86
2022/03/11 04:32:39;;;;;;;;;;;;;;;-0.50;50.49;100885.69;5027644;28;19916;-88
2022/03/11 04:35:04;;;;;;;;;;;;;;;-0.64;51.38;100891.06;5026070;28;20745;-86
2022/03/11 04:37:30;;;;;;;;;;;;;;;-0.56;51.40;100889.75;5026994;28;20374;-85
2022/03/11 04:39:57;;;;;;;;;;;;;;;-0.55;50.77;100891.50;5027161;28;19917;-85
2022/03/11 04:42:23;;;;;;;;;;;;;;;-0.74;51.21;100900.09;5027264;28;20383;-87
2022/03/11 04:44:48;;;;;;;;;;;;;;;-0.88;51.43;100898.53;5026871;28;19928;-86
2022/03/11 04:47:13;;;;;;;;;;;;;;;-1.01;51.43;100899.59;5026928;28;20382;-86
2022/03/11 04:49:39;;;;;;;;;;;;;;;-0.97;52.10;100898.06;5027493;28;20448;-87
2022/03/11 04:52:06;;;;;;;;;;;;;;;-1.21;53.08;100898.56;5027070;28;20019;-89
2022/03/11 04:54:31;;;;;;;;;;;;;;;-1.17;52.40;100907.41;5027890;28;19909;-86
2022/03/11 04:56:57;;;;;;;;;;;;;;;-1.48;53.81;100904.09;5027990;28;20433;-86
2022/03/11 04:59:22;;;;;;;;;;;;;;;-1.58;55.59;100903.50;5012184;28;19972;-87
2022/03/11 05:01:47;;;;;;;;;;;;;;;-1.51;55.64;100906.50;5031436;28;20002;-88
2022/03/11 05:04:13;;;;;;;;;;;;;;;-1.49;54.54;100911.78;5013876;28;19924;-87
2022/03/11 05:06:38;;;;;;;;;;;;;;;-1.13;53.88;100909.31;5009501;28;19913;-86
2022/03/11 05:09:03;;;;;;;;;;;;;;;-0.98;53.26;100914.41;5012194;28;20015;-86
2022/03/11 05:11:29;;;;;;;;;;;;;;;-0.78;53.11;100913.69;5030521;28;20147;-88
2022/03/11 05:13:55;;;;;;;;;;;;;;;-0.57;52.46;100919.06;5010942;28;19917;-88
2022/03/11 05:16:20;;;;;;;;;;;;;;;-0.49;52.76;100924.63;5012658;28;20426;-88
2022/03/11 05:18:45;;;;;;;;;;;;;;;-0.42;53.03;100925.81;5022742;28;20361;-88
2022/03/11 05:21:11;;;;;;;;;;;;;;;-0.36;53.09;100923.53;5033901;28;19920;-86
2022/03/11 05:23:36;;;;;;;;;;;;;;;-0.28;52.85;100932.59;5026079;28;19932;-87
2022/03/11 05:26:02;;;;;;;;;;;;;;;-0.32;53.94;100929.78;5031518;28;19979;-88
2022/03/11 05:28:28;;;;;;;;;;;;;;;-0.51;54.86;100931.47;5030016;28;20426;-87
2022/03/11 05:30:53;;;;;;;;;;;;;;;-0.48;55.11;100936.81;5030751;28;19921;-88
2022/03/11 05:33:18;;;;;;;;;;;;;;;-0.60;54.10;100934.47;5032247;28;19928;-90
2022/03/11 05:35:44;;;;;;;;;;;;;;;-0.70;54.03;100944.31;5031287;28;19924;-90
2022/03/11 05:38:09;;;;;;;;;;;;;;;-0.65;53.90;100938.56;5021617;28;19921;-88
2022/03/11 05:40:34;;;;;;;;;;;;;;;-0.43;53.49;100931.84;5012911;28;19970;-88
2022/03/11 05:43:00;;;;;;;;;;;;;;;-0.62;54.51;100943.88;5013470;28;20027;-88
2022/03/11 05:45:25;;;;;;;;;;;;;;;-0.56;54.60;100940.69;5031237;28;20044;-92
2022/03/11 05:47:50;;;;;;;;;;;;;;;-0.37;54.62;100937.31;5030708;28;19970;-87
2022/03/11 05:50:17;;;;;;;;;;;;;;;-0.25;53.87;100945.72;5029697;28;20014;-85
2022/03/11 05:52:42;;;;;;;;;;;;;;;-0.32;52.91;100937.56;5010245;28;19936;-87
2022/03/11 05:55:08;;;;;;;;;;;;;;;-0.44;54.19;100935.22;5029338;28;19921;-86
2022/03/11 05:57:34;;;;;;;;;;;;;;;-0.52;55.14;100934.84;5029619;28;19962;-85
2022/03/11 06:00:00;;;;;;;;;;;;;;;-0.38;55.34;100938.13;5029247;28;20098;-85
2022/03/11 06:02:25;;;;;;;;;;;;;;;-0.23;55.13;100930.22;5023149;28;20035;-84
2022/03/11 06:04:50;;;;;;;;;;;;;;;-0.08;54.90;100928.38;5028063;28;19928;-85
2022/03/11 06:07:16;;;;;;;;;;;;;;;-0.08;55.13;100930.03;5027804;28;19928;-86
2022/03/11 06:09:41;;;;;;;;;;;;;;;0.00;54.26;100933.91;5022789;28;19921;-85
2022/03/11 06:12:07;;;;;;;;;;;;;;;-0.29;55.07;100942.88;5008951;28;20411;-84
2022/03/11 06:14:32;;;;;;;;;;;;;;;0.00;55.84;100949.47;5009393;28;19945;-84
2022/03/11 06:16:57;;;;;;;;;;;;;;;0.02;55.31;100953.03;5005294;28;20395;-85
2022/03/11 06:19:23;;;;;;;;;;;;;;;0.02;54.71;100945.25;5029166;28;19988;-86
2022/03/11 06:21:48;;;;;;;;;;;;;;;0.26;53.97;100947.22;5026371;28;20049;-86
2022/03/11 06:24:14;;;;;;;;;;;;;;;0.07;56.83;100951.53;5010401;28;20408;-85
2022/03/11 06:26:40;;;;;;;;;;;;;;;0.39;56.05;100952.16;5028433;28;19964;-86
2022/03/11 06:29:06;;;;;;;;;;;;;;;0.78;58.59;100953.91;5029524;28;19917;-85
2022/03/11 06:31:31;;;;;;;;;;;;;;;1.01;56.43;100957.53;5011863;28;19924;-85
2022/03/11 06:33:58;;;;;;;;;;;;;;;1.06;57.64;100946.47;5030082;28;20397;-85
2022/03/11 06:36:23;;;;;;;;;;;;;;;1.18;54.86;100956.53;5029254;28;20067;-85
2022/03/11 06:38:48;;;;;;;;;;;;;;;0.94;54.11;100958.94;5030448;28;20008;-92
2022/03/11 06:41:14;;;;;;;;;;;;;;;0.80;53.50;100955.72;5028443;28;20023;-90
2022/03/11 06:43:39;;;;;;;;;;;;;;;0.74;54.29;100959.75;5029102;28;19928;-90
2022/03/11 06:46:04;;;;;;;;;;;;;;;0.38;53.48;100965.94;5013040;28;19959;-91
2022/03/11 06:48:30;;;;;;;;;;;;;;;0.59;53.79;100966.06;4988081;28;20379;-90
2022/03/11 06:50:55;;;;;;;;;;;;;;;0.59;53.88;100967.75;5028480;28;19967;-92
2022/03/11 06:53:25;;;;;;;;;;;;;;;0.48;54.98;100972.44;5049943;28;20334;-92
2022/03/11 06:55:52;;;;;;;;;;;;;;;0.77;53.97;100967.69;5025926;28;19917;-90
2022/03/11 06:58:18;;;;;;;;;;;;;;;0.46;53.65;100974.09;5013842;28;20392;-89
2022/03/11 07:00:43;;;;;;;;;;;;;;;0.46;53.06;100968.91;5031191;28;20054;-92
2022/03/11 07:03:09;;;;;;;;;;;;;;;0.53;52.34;100968.38;5011757;28;19916;-90
2022/03/11 07:05:34;;;;;;;;;;;;;;;0.57;52.96;100970.28;5029453;28;19928;-89
2022/03/11 07:08:00;;;;;;;;;;;;;;;0.87;50.54;100972.50;5007336;28;19918;-87
2022/03/11 07:10:25;;;;;;;;;;;;;;;1.21;48.90;100967.06;5027988;28;19932;-86
2022/03/11 07:12:50;;;;;;;;;;;;;;;1.45;48.97;100974.13;5028460;28;19975;-87
2022/03/11 07:15:16;;;;;;;;;;;;;;;1.53;46.52;100975.34;5028592;28;19927;-89
2022/03/11 07:17:41;;;;;;;;;;;;;;;1.10;45.94;100980.41;5010553;28;19928;-91
2022/03/11 07:20:07;;;;;;;;;;;;;;;0.99;47.04;100977.31;5028958;28;19925;-89
2022/03/11 07:22:32;;;;;;;;;;;;;;;0.93;47.55;100977.97;5027482;28;19916;-87
2022/03/11 07:24:58;;;;;;;;;;;;;;;1.27;47.70;100975.94;5027899;28;19928;-87
2022/03/11 07:27:24;;;;;;;;;;;;;;;1.42;46.52;100974.91;5028433;28;19971;-90
2022/03/11 07:29:50;;;;;;;;;;;;;;;1.49;45.24;100980.38;5028594;28;20115;-88
2022/03/11 07:32:17;;;;;;;;;;;;;;;1.41;45.91;100972.25;5004920;28;19921;-88
2022/03/11 07:34:42;;;;;;;;;;;;;;;1.33;46.08;100965.78;5035120;28;20015;-89
2022/03/11 07:37:11;;;;;;;;;;;;;;;1.29;46.57;100975.19;5010699;28;20004;-89
2022/03/11 07:39:37;;;;;;;;;;;;;;;1.44;47.02;100977.56;5010860;28;20509;-88
2022/03/11 07:42:03;;;;;;;;;;;;;;;1.55;47.96;100975.41;5028619;28;19925;-88
2022/03/11 07:44:28;;;;;;;;;;;;;;;1.69;48.24;100976.00;5028347;28;20391;-89
2022/03/11 07:46:53;;;;;;;;;;;;;;;2.29;47.16;100979.28;5029667;28;19923;-88
2022/03/11 07:49:19;;;;;;;;;;;;;;;2.48;46.85;100970.44;5035251;28;19916;-90
2022/03/11 07:51:44;;;;;;;;;;;;;;;2.66;45.32;100966.78;5025828;28;19960;-88
2022/03/11 07:54:09;;;;;;;;;;;;;;;2.75;45.42;100974.03;5029550;28;19921;-90
2022/03/11 07:56:35;;;;;;;;;;;;;;;2.68;44.26;100980.75;5024463;28;19929;-89
2022/03/11 07:59:02;;;;;;;;;;;;;;;2.51;44.31;100975.78;5013457;28;19917;-88
2022/03/11 08:01:27;;;;;;;;;;;;;;;2.88;44.41;100971.06;5033797;28;19924;-85
2022/03/11 08:03:53;;;;;;;;;;;;;;;3.14;44.18;100973.72;5029787;28;19921;-84
2022/03/11 08:06:18;;;;;;;;;;;;;;;3.39;44.55;100971.13;5031011;28;19913;-89
2022/03/11 08:08:43;;;;;;;;;;;;;;;3.52;42.94;100967.25;5030570;28;20318;-86
2022/03/11 08:11:10;;;;;;;;;;;;;;;3.68;42.46;100960.81;5024409;28;20378;-85
2022/03/11 08:13:36;;;;;;;;;;;;;;;3.35;42.93;100961.44;5024385;28;19963;-85
2022/03/11 08:16:02;;;;;;;;;;;;;;;3.51;41.47;100965.47;5027712;28;20096;-86
2022/03/11 08:18:28;;;;;;;;;;;;;;;3.45;41.68;100966.97;4997617;28;19945;-86
2022/03/11 08:20:53;;;;;;;;;;;;;;;3.64;42.47;100964.13;5008392;28;19917;-87
2022/03/11 08:23:19;;;;;;;;;;;;;;;3.80;43.11;100956.81;5009997;28;19913;-87
2022/03/11 08:25:45;;;;;;;;;;;;;;;3.80;41.04;100964.66;5016828;28;19917;-85
2022/03/11 08:28:13;;;;;;;;;;;;;;;3.66;40.91;100958.97;5027125;28;19913;-85
2022/03/11 08:30:39;;;;;;;;;;;;;;;3.41;41.41;100955.53;5028359;28;19916;-86
2022/03/11 08:33:04;;;;;;;;;;;;;;;3.53;42.43;100957.69;5029023;28;19924;-85
2022/03/11 08:35:30;;;;;;;;;;;;;;;3.98;41.46;100959.16;5026893;28;19925;-86
2022/03/11 08:37:56;;;;;;;;;;;;;;;2.94;42.36;100966.06;5027933;28;19921;-86
2022/03/11 08:40:23;;;;;;;;;;;;;;;3.07;41.31;100958.69;5027568;28;20343;-86
2022/03/11 08:42:49;;;;;;;;;;;;;;;2.81;41.62;100963.84;5027983;28;19919;-85
2022/03/11 08:45:15;;;;;;;;;;;;;;;2.53;41.22;100964.53;5027298;28;20331;-86
2022/03/11 08:47:41;;;;;;;;;;;;;;;2.41;41.80;100964.94;5031997;28;19924;-86
2022/03/11 08:50:06;;;;;;;;;;;;;;;2.57;40.50;100963.84;5032755;28;19917;-86
2022/03/11 08:52:32;;;;;;;;;;;;;;;2.55;41.19;100957.66;5031815;28;20416;-85
2022/03/11 08:54:58;;;;;;;;;;;;;;;2.30;42.80;100959.31;5029660;28;19957;-85
2022/03/11 08:57:24;;;;;;;;;;;;;;;2.47;42.30;100958.28;5032918;28;20425;-89
2022/03/11 08:59:49;;;;;;;;;;;;;;;2.59;42.19;100956.94;5040935;28;20440;-89
2022/03/11 09:02:15;;;;;;;;;;;;;;;2.71;42.88;100948.72;5035872;28;20737;-86
2022/03/11 09:04:41;;;;;;;;;;;;;;;2.07;44.38;100955.81;5041126;28;19928;-88
2022/03/11 09:07:06;;;;;;;;;;;;;;;1.64;45.14;100960.19;5038804;28;19921;-86
2022/03/11 09:09:32;;;;;;;;;;;;;;;1.25;47.22;100953.38;5038646;28;19951;-86
2022/03/11 09:11:58;;;;;;;;;;;;;;;1.45;49.61;100958.53;5034062;28;19975;-88
2022/03/11 09:14:23;;;;;;;;;;;;;;;1.07;46.97;100952.59;5039917;28;19924;-86
2022/03/11 09:16:49;;;;;;;;;;;;;;;1.43;44.84;100949.78;5034973;28;20375;-86
2022/03/11 09:19:14;;;;;;;;;;;;;;;2.02;45.13;100949.56;5034146;28;19924;-85
2022/03/11 09:21:40;;;;;;;;;;;;;;;2.46;44.98;100945.19;5037320;28;19917;-85
2022/03/11 09:24:05;;;;;;;;;;;;;;;2.19;44.44;100943.28;5038876;28;20011;-86
2022/03/11 09:26:31;;;;;;;;;;;;;;;2.02;43.42;100941.75;5035859;28;19923;-85
2022/03/11 09:28:57;;;;;;;;;;;;;;;2.04;42.98;100942.69;5036796;28;19921;-87
2022/03/11 09:31:22;;;;;;;;;;;;;;;1.94;43.33;100937.13;5018527;28;19916;-86
2022/03/11 09:33:47;;;;;;;;;;;;;;;1.59;43.05;100941.81;5034221;28;19917;-86
2022/03/11 09:36:13;;;;;;;;;;;;;;;0.91;44.62;100935.41;5051475;28;19997;-88
2022/03/11 09:38:38;;;;;;;;;;;;;;;1.52;45.85;100934.56;5032230;28;19944;-86
2022/03/11 09:41:05;;;;;;;;;;;;;;;1.83;44.87;100932.31;5037563;28;19916;-86
2022/03/11 09:43:30;;;;;;;;;;;;;;;1.87;44.05;100929.91;5031853;28;19956;-84
2022/03/11 09:45:56;;;;;;;;;;;;;;;1.76;43.22;100925.97;5015621;28;19979;-86
2022/03/11 09:48:22;;;;;;;;;;;;;;;1.42;44.90;100924.59;5018368;28;19918;-87
2022/03/11 09:50:47;;;;;;;;;;;;;;;1.94;43.45;100921.50;5022438;28;19918;-88
2022/03/11 09:53:13;;;;;;;;;;;;;;;2.48;43.82;100909.66;5023646;28;19948;-88
2022/03/11 09:55:38;;;;;;;;;;;;;;;2.55;43.78;100911.69;5031234;28;19921;-86
2022/03/11 09:58:04;;;;;;;;;;;;;;;2.53;44.41;100904.63;5042583;28;19917;-88
2022/03/11 10:00:29;;;;;;;;;;;;;;;2.94;43.98;100907.84;5034712;28;19960;-86
2022/03/11 10:02:55;;;;;;;;;;;;;;;2.66;43.93;100912.94;5041320;28;19917;-86
2022/03/11 10:05:21;;;;;;;;;;;;;;;2.51;45.42;100907.16;5038300;28;19988;-87
2022/03/11 10:07:57;;;;;;;;;;;;;;;2.90;43.89;100904.22;5012938;28;19914;-86
2022/03/11 10:10:22;;;;;;;;;;;;;;;3.43;42.83;100899.09;5020639;28;19975;-85
2022/03/11 10:12:47;;;;;;;;;;;;;;;2.74;41.38;100901.94;5010248;28;20356;-86
2022/03/11 10:15:14;;;;;;;;;;;;;;;2.69;40.84;100897.44;4990556;28;20822;-86
2022/03/11 10:17:40;;;;;;;;;;;;;;;2.95;45.00;100896.56;4991174;28;19953;-86
2022/03/11 10:20:05;;;;;;;;;;;;;;;3.03;42.63;100895.13;4994445;28;19922;-87
2022/03/11 10:22:34;;;;;;;;;;;;;;;2.17;42.21;100898.09;5007299;28;20406;-86
2022/03/11 10:25:09;;;;;;;;;;;;;;;2.25;44.01;100894.06;5009758;28;19917;-87
2022/03/11 10:27:53;;;;;;;;;;;;;;;2.81;42.42;100890.88;5009172;28;19925;-86
2022/03/11 10:30:19;;;;;;;;;;;;;;;3.08;43.74;100877.91;5009208;28;19921;-87
2022/03/11 10:32:48;;;;;;;;;;;;;;;2.93;42.84;100882.59;5004252;28;20375;-87
2022/03/11 10:35:14;;;;;;;;;;;;;;;3.00;39.11;100877.66;5000769;28;20311;-86
2022/03/11 10:37:56;;;;;;;;;;;;;;;3.19;41.42;100879.16;5005778;28;19921;-86
2022/03/11 10:40:21;;;;;;;;;;;;;;;2.79;40.06;100877.78;5005979;28;19967;-86
2022/03/11 10:42:46;;;;;;;;;;;;;;;3.22;39.23;100866.22;4999127;28;20726;-86
2022/03/11 10:45:13;;;;;;;;;;;;;;;3.34;39.23;100860.53;5040445;28;20721;-87
2022/03/11 10:47:40;;;;;;;;;;;;;;;3.79;37.13;100854.13;5028972;28;19919;-86
2022/03/11 10:50:06;;;;;;;;;;;;;;;3.33;38.85;100853.53;5029078;28;20418;-87
2022/03/11 10:52:35;;;;;;;;;;;;;;;2.67;37.95;100857.41;5026075;28;19920;-87
2022/03/11 10:55:01;;;;;;;;;;;;;;;2.19;37.72;100854.75;5028467;28;20015;-85
2022/03/11 10:57:34;;;;;;;;;;;;;;;2.26;38.12;100848.09;5026982;28;19924;-88
2022/03/11 11:00:20;;;;;;;;;;;;;;;2.12;38.33;100852.78;5026499;28;19951;-88
2022/03/11 11:02:45;;;;;;;;;;;;;;;2.64;40.12;100846.88;5015501;28;19940;-86
2022/03/11 11:05:11;;;;;;;;;;;;;;;2.50;38.80;100843.78;4991381;28;19917;-87
2022/03/11 11:07:37;;;;;;;;;;;;;;;2.65;37.40;100829.50;5031012;28;19917;-85
2022/03/11 11:10:02;;;;;;;;;;;;;;;3.00;37.75;100835.06;5026452;28;19964;-87
2022/03/11 11:12:28;;;;;;;;;;;;;;;3.18;39.67;100837.38;5028178;28;19921;-87
2022/03/11 11:14:53;;;;;;;;;;;;;;;3.00;36.38;100829.84;5028568;28;19929;-85
2022/03/11 11:17:19;;;;;;;;;;;;;;;2.85;39.72;100825.00;5029135;28;19913;-86
2022/03/11 11:19:45;;;;;;;;;;;;;;;3.03;40.44;100820.41;5024398;28;19923;-87
2022/03/11 11:22:10;;;;;;;;;;;;;;;3.28;39.29;100820.34;5023728;28;20340;-87
2022/03/11 11:24:37;;;;;;;;;;;;;;;3.56;42.23;100815.16;5028537;28;19917;-86
2022/03/11 11:27:03;;;;;;;;;;;;;;;3.89;38.94;100813.53;5028983;28;20445;-86
2022/03/11 11:29:29;;;;;;;;;;;;;;;3.52;40.01;100815.00;5041838;28;19917;-87
2022/03/11 11:31:55;;;;;;;;;;;;;;;3.04;41.15;100816.06;5031375;28;19964;-87
2022/03/11 11:34:24;;;;;;;;;;;;;;;3.05;42.28;100816.13;5011097;28;20416;-87
2022/03/11 11:36:50;;;;;;;;;;;;;;;3.22;40.98;100808.84;5028303;28;20427;-89
2022/03/11 11:39:15;;;;;;;;;;;;;;;2.93;39.10;100812.22;5010913;28;19963;-87
2022/03/11 11:41:50;;;;;;;;;;;;;;;3.50;40.72;100801.91;5028643;28;19952;-88
2022/03/11 11:44:16;;;;;;;;;;;;;;;3.72;39.97;100800.88;5027369;28;19927;-85
2022/03/11 11:46:41;;;;;;;;;;;;;;;3.81;41.18;100796.75;5028267;28;20310;-85
2022/03/11 11:49:08;;;;;;;;;;;;;;;3.91;39.32;100804.91;5028352;28;19917;-87
2022/03/11 11:51:36;;;;;;;;;;;;;;;3.79;38.77;100801.94;5027919;28;19921;-87
2022/03/11 11:54:08;;;;;;;;;;;;;;;3.50;36.57;100796.69;5010472;28;20382;-87
2022/03/11 11:56:41;;;;;;;;;;;;;;;3.92;38.21;100795.34;5028678;28;19924;-86
2022/03/11 11:59:14;;;;;;;;;;;;;;;4.37;38.13;100792.31;5028416;28;19917;-87
2022/03/11 12:01:40;;;;;;;;;;;;;;;4.29;37.79;100785.97;5030937;28;19929;-87
2022/03/11 12:04:20;;;;;;;;;;;;;;;3.54;37.19;100789.88;5042287;28;20369;-84
2022/03/11 12:07:04;;;;;;;;;;;;;;;2.87;37.75;100792.03;5025740;28;20018;-85
2022/03/11 12:12:25;;;;;;;;;;;;;;;3.26;39.35;100783.78;5024094;28;20023;-85
2022/03/11 12:15:05;;;;;;;;;;;;;;;3.62;38.58;100779.66;4996142;28;19923;-86
2022/03/11 12:17:44;;;;;;;;;;;;;;;3.33;38.15;100787.47;5026931;28;20007;-84
2022/03/11 12:20:28;;;;;;;;;;;;;;;3.47;37.71;100774.84;5025355;28;19974;-86
2022/03/11 12:22:58;;;;;;;;;;;;;;;3.24;37.80;100780.22;5026959;28;19928;-86
2022/03/11 12:25:28;;;;;;;;;;;;;;;3.67;38.87;100776.34;5027509;28;19968;-88
2022/03/11 12:28:05;;;;;;;;;;;;;;;3.53;35.12;100782.88;5026907;28;19921;-87
2022/03/11 12:30:32;;;;;;;;;;;;;;;3.32;36.65;100772.63;5027289;28;20314;-89
2022/03/11 12:33:08;;;;;;;;;;;;;;;2.71;35.64;100782.81;5026630;28;19917;-89
2022/03/11 12:35:34;;;;;;;;;;;;;;;2.74;36.69;100780.31;5009196;28;19924;-87
2022/03/11 12:38:00;;;;;;;;;;;;;;;2.99;36.09;100769.00;5027058;28;19909;-86
2022/03/11 12:40:27;;;;;;;;;;;;;;;3.61;36.23;100765.72;5006476;28;19932;-88